sensor_id;sensor_type;location;lat;lon;timestamp;P1;durP1;ratioP1;P2;durP2;ratioP2
82806;SDS011;72563;44.816;20.484;2023-09-08T00:01:51;11.77;;;5.68;;
82806;SDS011;72563;44.816;20.484;2023-09-08T00:04:16;12.73;;;6.90;;
82806;SDS011;72563;44.816;20.484;2023-09-08T00:06:44;14.68;;;6.70;;
82806;SDS011;72563;44.816;20.484;2023-09-08T00:09:10;14.07;;;6.82;;
82806;SDS011;72563;44.816;20.484;2023-09-08T00:11:36;12.23;;;6.68;;
82806;SDS011;72563;44.816;20.484;2023-09-08T00:14:01;13.15;;;6.32;;
82806;SDS011;72563;44.816;20.484;2023-09-08T00:16:28;11.05;;;6.22;;
82806;SDS011;72563;44.816;20.484;2023-09-08T00:18:54;10.82;;;6.10;;
82806;SDS011;72563;44.816;20.484;2023-09-08T00:21:20;11.65;;;6.68;;
82806;SDS011;72563;44.816;20.484;2023-09-08T00:23:45;11.38;;;6.45;;
82806;SDS011;72563;44.816;20.484;2023-09-08T00:26:11;13.65;;;6.32;;
82806;SDS011;72563;44.816;20.484;2023-09-08T00:28:36;13.18;;;6.57;;
82806;SDS011;72563;44.816;20.484;2023-09-08T00:31:02;12.50;;;6.57;;
82806;SDS011;72563;44.816;20.484;2023-09-08T00:33:27;14.20;;;5.95;;
82806;SDS011;72563;44.816;20.484;2023-09-08T00:35:53;13.07;;;5.82;;
82806;SDS011;72563;44.816;20.484;2023-09-08T00:38:18;11.15;;;5.90;;
82806;SDS011;72563;44.816;20.484;2023-09-08T00:40:44;12.07;;;7.35;;
82806;SDS011;72563;44.816;20.484;2023-09-08T00:43:10;10.27;;;5.57;;
82806;SDS011;72563;44.816;20.484;2023-09-08T00:45:37;12.63;;;5.65;;
82806;SDS011;72563;44.816;20.484;2023-09-08T00:48:05;10.73;;;5.68;;
82806;SDS011;72563;44.816;20.484;2023-09-08T00:50:31;13.23;;;6.18;;
82806;SDS011;72563;44.816;20.484;2023-09-08T00:52:57;13.35;;;5.75;;
82806;SDS011;72563;44.816;20.484;2023-09-08T00:55:23;11.13;;;5.97;;
82806;SDS011;72563;44.816;20.484;2023-09-08T00:57:49;11.43;;;5.68;;
82806;SDS011;72563;44.816;20.484;2023-09-08T01:00:14;10.45;;;5.75;;
82806;SDS011;72563;44.816;20.484;2023-09-08T01:02:40;10.48;;;5.47;;
82806;SDS011;72563;44.816;20.484;2023-09-08T01:05:06;10.57;;;5.53;;
82806;SDS011;72563;44.816;20.484;2023-09-08T01:07:31;13.02;;;5.75;;
82806;SDS011;72563;44.816;20.484;2023-09-08T01:09:57;14.63;;;5.80;;
82806;SDS011;72563;44.816;20.484;2023-09-08T01:12:28;11.07;;;5.53;;
82806;SDS011;72563;44.816;20.484;2023-09-08T01:14:54;10.00;;;4.30;;
82806;SDS011;72563;44.816;20.484;2023-09-08T01:17:20;12.32;;;5.00;;
82806;SDS011;72563;44.816;20.484;2023-09-08T01:19:45;10.48;;;4.38;;
82806;SDS011;72563;44.816;20.484;2023-09-08T01:25:20;12.90;;;5.03;;
82806;SDS011;72563;44.816;20.484;2023-09-08T01:27:48;11.75;;;4.60;;
82806;SDS011;72563;44.816;20.484;2023-09-08T01:30:18;9.70;;;4.55;;
82806;SDS011;72563;44.816;20.484;2023-09-08T01:32:46;9.73;;;4.40;;
82806;SDS011;72563;44.816;20.484;2023-09-08T01:35:12;9.27;;;4.53;;
82806;SDS011;72563;44.816;20.484;2023-09-08T01:37:44;10.45;;;4.45;;
82806;SDS011;72563;44.816;20.484;2023-09-08T01:40:11;8.25;;;4.03;;
82806;SDS011;72563;44.816;20.484;2023-09-08T01:42:40;9.35;;;4.35;;
82806;SDS011;72563;44.816;20.484;2023-09-08T01:45:06;8.68;;;3.50;;
82806;SDS011;72563;44.816;20.484;2023-09-08T01:47:33;13.23;;;4.30;;
82806;SDS011;72563;44.816;20.484;2023-09-08T01:49:59;9.32;;;3.97;;
82806;SDS011;72563;44.816;20.484;2023-09-08T01:52:25;8.02;;;3.60;;
82806;SDS011;72563;44.816;20.484;2023-09-08T01:54:50;7.82;;;3.60;;
82806;SDS011;72563;44.816;20.484;2023-09-08T01:57:16;7.93;;;3.53;;
82806;SDS011;72563;44.816;20.484;2023-09-08T01:59:42;8.05;;;4.00;;
82806;SDS011;72563;44.816;20.484;2023-09-08T02:02:08;10.82;;;4.03;;
82806;SDS011;72563;44.816;20.484;2023-09-08T02:04:33;9.82;;;3.75;;
82806;SDS011;72563;44.816;20.484;2023-09-08T02:06:59;8.27;;;3.70;;
82806;SDS011;72563;44.816;20.484;2023-09-08T02:09:34;8.60;;;3.72;;
82806;SDS011;72563;44.816;20.484;2023-09-08T02:12:01;7.38;;;3.83;;
82806;SDS011;72563;44.816;20.484;2023-09-08T02:14:27;8.25;;;4.00;;
82806;SDS011;72563;44.816;20.484;2023-09-08T02:16:53;9.73;;;3.67;;
82806;SDS011;72563;44.816;20.484;2023-09-08T02:19:19;7.97;;;3.80;;
82806;SDS011;72563;44.816;20.484;2023-09-08T02:21:45;7.03;;;3.85;;
82806;SDS011;72563;44.816;20.484;2023-09-08T02:24:10;6.78;;;3.40;;
82806;SDS011;72563;44.816;20.484;2023-09-08T02:26:35;7.03;;;3.65;;
82806;SDS011;72563;44.816;20.484;2023-09-08T02:29:01;8.07;;;3.88;;
82806;SDS011;72563;44.816;20.484;2023-09-08T02:31:27;10.02;;;3.88;;
82806;SDS011;72563;44.816;20.484;2023-09-08T02:33:53;7.75;;;3.58;;
82806;SDS011;72563;44.816;20.484;2023-09-08T02:36:18;8.90;;;4.03;;
82806;SDS011;72563;44.816;20.484;2023-09-08T02:38:50;7.65;;;3.33;;
82806;SDS011;72563;44.816;20.484;2023-09-08T02:41:16;9.45;;;4.28;;
82806;SDS011;72563;44.816;20.484;2023-09-08T02:43:41;7.82;;;3.67;;
82806;SDS011;72563;44.816;20.484;2023-09-08T02:46:07;8.02;;;3.58;;
82806;SDS011;72563;44.816;20.484;2023-09-08T02:48:34;8.95;;;3.53;;
82806;SDS011;72563;44.816;20.484;2023-09-08T02:51:00;10.65;;;3.55;;
82806;SDS011;72563;44.816;20.484;2023-09-08T02:53:25;9.15;;;3.70;;
82806;SDS011;72563;44.816;20.484;2023-09-08T02:55:53;7.40;;;3.38;;
82806;SDS011;72563;44.816;20.484;2023-09-08T02:58:22;9.07;;;3.65;;
82806;SDS011;72563;44.816;20.484;2023-09-08T03:00:47;8.20;;;3.95;;
82806;SDS011;72563;44.816;20.484;2023-09-08T03:03:13;6.93;;;3.15;;
82806;SDS011;72563;44.816;20.484;2023-09-08T03:05:39;7.60;;;3.38;;
82806;SDS011;72563;44.816;20.484;2023-09-08T03:08:05;7.80;;;3.38;;
82806;SDS011;72563;44.816;20.484;2023-09-08T03:10:31;10.63;;;3.70;;
82806;SDS011;72563;44.816;20.484;2023-09-08T03:12:59;7.30;;;3.50;;
82806;SDS011;72563;44.816;20.484;2023-09-08T03:15:25;9.02;;;3.40;;
82806;SDS011;72563;44.816;20.484;2023-09-08T03:17:53;9.50;;;3.45;;
82806;SDS011;72563;44.816;20.484;2023-09-08T03:20:23;7.88;;;3.45;;
82806;SDS011;72563;44.816;20.484;2023-09-08T03:22:51;7.93;;;3.83;;
82806;SDS011;72563;44.816;20.484;2023-09-08T03:25:16;8.85;;;3.35;;
82806;SDS011;72563;44.816;20.484;2023-09-08T03:27:42;8.20;;;3.90;;
82806;SDS011;72563;44.816;20.484;2023-09-08T03:30:07;8.40;;;3.45;;
82806;SDS011;72563;44.816;20.484;2023-09-08T03:32:34;8.45;;;3.58;;
82806;SDS011;72563;44.816;20.484;2023-09-08T03:34:59;8.10;;;3.85;;
82806;SDS011;72563;44.816;20.484;2023-09-08T03:37:25;8.48;;;3.63;;
82806;SDS011;72563;44.816;20.484;2023-09-08T03:39:51;7.85;;;3.58;;
82806;SDS011;72563;44.816;20.484;2023-09-08T03:42:17;7.05;;;3.33;;
82806;SDS011;72563;44.816;20.484;2023-09-08T03:44:43;8.30;;;3.47;;
82806;SDS011;72563;44.816;20.484;2023-09-08T03:47:08;7.82;;;3.25;;
82806;SDS011;72563;44.816;20.484;2023-09-08T03:49:34;10.25;;;3.80;;
82806;SDS011;72563;44.816;20.484;2023-09-08T03:51:59;8.82;;;3.80;;
82806;SDS011;72563;44.816;20.484;2023-09-08T03:54:25;9.95;;;3.35;;
82806;SDS011;72563;44.816;20.484;2023-09-08T03:56:50;8.88;;;3.38;;
82806;SDS011;72563;44.816;20.484;2023-09-08T03:59:15;8.98;;;3.40;;
82806;SDS011;72563;44.816;20.484;2023-09-08T04:01:41;8.73;;;3.47;;
82806;SDS011;72563;44.816;20.484;2023-09-08T04:04:07;7.40;;;3.50;;
82806;SDS011;72563;44.816;20.484;2023-09-08T04:06:33;8.02;;;3.63;;
82806;SDS011;72563;44.816;20.484;2023-09-08T04:08:59;9.25;;;3.88;;
82806;SDS011;72563;44.816;20.484;2023-09-08T04:11:24;8.55;;;3.63;;
82806;SDS011;72563;44.816;20.484;2023-09-08T04:13:51;9.73;;;3.70;;
82806;SDS011;72563;44.816;20.484;2023-09-08T04:16:16;11.73;;;4.03;;
82806;SDS011;72563;44.816;20.484;2023-09-08T04:18:42;9.80;;;3.70;;
82806;SDS011;72563;44.816;20.484;2023-09-08T04:21:07;9.32;;;4.30;;
82806;SDS011;72563;44.816;20.484;2023-09-08T04:23:32;9.27;;;3.15;;
82806;SDS011;72563;44.816;20.484;2023-09-08T04:25:59;7.95;;;3.28;;
82806;SDS011;72563;44.816;20.484;2023-09-08T04:28:24;8.32;;;3.63;;
82806;SDS011;72563;44.816;20.484;2023-09-08T04:30:50;8.48;;;3.67;;
82806;SDS011;72563;44.816;20.484;2023-09-08T04:33:15;8.90;;;3.33;;
82806;SDS011;72563;44.816;20.484;2023-09-08T04:35:41;7.35;;;3.58;;
82806;SDS011;72563;44.816;20.484;2023-09-08T04:38:06;9.55;;;3.28;;
82806;SDS011;72563;44.816;20.484;2023-09-08T04:40:32;7.38;;;3.30;;
82806;SDS011;72563;44.816;20.484;2023-09-08T04:42:57;8.10;;;3.22;;
82806;SDS011;72563;44.816;20.484;2023-09-08T04:45:23;7.75;;;3.72;;
82806;SDS011;72563;44.816;20.484;2023-09-08T04:47:48;8.23;;;3.70;;
82806;SDS011;72563;44.816;20.484;2023-09-08T04:50:14;8.68;;;3.83;;
82806;SDS011;72563;44.816;20.484;2023-09-08T04:52:40;9.02;;;3.47;;
82806;SDS011;72563;44.816;20.484;2023-09-08T04:55:05;9.05;;;3.90;;
82806;SDS011;72563;44.816;20.484;2023-09-08T04:57:31;9.40;;;3.53;;
82806;SDS011;72563;44.816;20.484;2023-09-08T04:59:56;9.02;;;3.20;;
82806;SDS011;72563;44.816;20.484;2023-09-08T05:02:22;8.82;;;3.63;;
82806;SDS011;72563;44.816;20.484;2023-09-08T05:04:47;8.57;;;3.35;;
82806;SDS011;72563;44.816;20.484;2023-09-08T05:07:13;9.32;;;3.42;;
82806;SDS011;72563;44.816;20.484;2023-09-08T05:09:38;6.53;;;3.15;;
82806;SDS011;72563;44.816;20.484;2023-09-08T05:12:04;7.22;;;3.15;;
82806;SDS011;72563;44.816;20.484;2023-09-08T05:14:31;7.43;;;3.42;;
82806;SDS011;72563;44.816;20.484;2023-09-08T05:16:56;8.80;;;3.58;;
82806;SDS011;72563;44.816;20.484;2023-09-08T05:19:22;8.48;;;3.28;;
82806;SDS011;72563;44.816;20.484;2023-09-08T05:21:49;8.35;;;3.30;;
82806;SDS011;72563;44.816;20.484;2023-09-08T05:24:15;11.85;;;3.65;;
82806;SDS011;72563;44.816;20.484;2023-09-08T05:26:41;8.48;;;3.50;;
82806;SDS011;72563;44.816;20.484;2023-09-08T05:29:06;8.00;;;3.78;;
82806;SDS011;72563;44.816;20.484;2023-09-08T05:31:32;7.95;;;4.10;;
82806;SDS011;72563;44.816;20.484;2023-09-08T05:33:57;9.40;;;3.97;;
82806;SDS011;72563;44.816;20.484;2023-09-08T05:36:23;7.22;;;3.35;;
82806;SDS011;72563;44.816;20.484;2023-09-08T05:38:49;8.52;;;3.53;;
82806;SDS011;72563;44.816;20.484;2023-09-08T05:41:14;7.47;;;3.63;;
82806;SDS011;72563;44.816;20.484;2023-09-08T05:43:39;6.93;;;3.40;;
82806;SDS011;72563;44.816;20.484;2023-09-08T05:46:05;9.02;;;3.42;;
82806;SDS011;72563;44.816;20.484;2023-09-08T05:48:30;7.63;;;3.92;;
82806;SDS011;72563;44.816;20.484;2023-09-08T05:50:56;7.95;;;3.15;;
82806;SDS011;72563;44.816;20.484;2023-09-08T05:53:22;11.20;;;3.38;;
82806;SDS011;72563;44.816;20.484;2023-09-08T05:55:47;9.75;;;3.50;;
82806;SDS011;72563;44.816;20.484;2023-09-08T05:58:13;7.63;;;3.03;;
82806;SDS011;72563;44.816;20.484;2023-09-08T06:00:38;11.52;;;3.70;;
82806;SDS011;72563;44.816;20.484;2023-09-08T06:03:04;8.38;;;3.30;;
82806;SDS011;72563;44.816;20.484;2023-09-08T06:05:30;10.07;;;3.60;;
82806;SDS011;72563;44.816;20.484;2023-09-08T06:07:55;9.50;;;3.50;;
82806;SDS011;72563;44.816;20.484;2023-09-08T06:10:21;7.85;;;3.50;;
82806;SDS011;72563;44.816;20.484;2023-09-08T06:12:46;8.95;;;3.50;;
82806;SDS011;72563;44.816;20.484;2023-09-08T06:15:15;8.25;;;3.63;;
82806;SDS011;72563;44.816;20.484;2023-09-08T06:17:41;8.68;;;3.50;;
82806;SDS011;72563;44.816;20.484;2023-09-08T06:20:06;10.82;;;3.80;;
82806;SDS011;72563;44.816;20.484;2023-09-08T06:22:33;9.73;;;3.80;;
82806;SDS011;72563;44.816;20.484;2023-09-08T06:24:59;7.40;;;3.60;;
82806;SDS011;72563;44.816;20.484;2023-09-08T06:27:24;13.23;;;3.33;;
82806;SDS011;72563;44.816;20.484;2023-09-08T06:29:50;10.55;;;3.53;;
82806;SDS011;72563;44.816;20.484;2023-09-08T06:32:16;6.95;;;3.30;;
82806;SDS011;72563;44.816;20.484;2023-09-08T06:34:41;9.88;;;3.92;;
82806;SDS011;72563;44.816;20.484;2023-09-08T06:37:08;9.20;;;3.38;;
82806;SDS011;72563;44.816;20.484;2023-09-08T06:39:33;6.80;;;3.00;;
82806;SDS011;72563;44.816;20.484;2023-09-08T06:41:59;7.00;;;3.35;;
82806;SDS011;72563;44.816;20.484;2023-09-08T06:44:24;6.85;;;3.30;;
82806;SDS011;72563;44.816;20.484;2023-09-08T06:46:50;10.77;;;3.40;;
82806;SDS011;72563;44.816;20.484;2023-09-08T06:49:16;7.85;;;3.42;;
82806;SDS011;72563;44.816;20.484;2023-09-08T06:51:42;8.98;;;3.33;;
82806;SDS011;72563;44.816;20.484;2023-09-08T06:54:07;6.75;;;3.33;;
82806;SDS011;72563;44.816;20.484;2023-09-08T06:56:34;7.50;;;3.38;;
82806;SDS011;72563;44.816;20.484;2023-09-08T06:59:01;7.90;;;3.33;;
82806;SDS011;72563;44.816;20.484;2023-09-08T07:01:27;7.43;;;3.33;;
82806;SDS011;72563;44.816;20.484;2023-09-08T07:03:53;8.82;;;3.80;;
82806;SDS011;72563;44.816;20.484;2023-09-08T07:06:18;9.13;;;3.78;;
82806;SDS011;72563;44.816;20.484;2023-09-08T07:08:47;8.38;;;3.78;;
82806;SDS011;72563;44.816;20.484;2023-09-08T07:11:14;8.88;;;3.38;;
82806;SDS011;72563;44.816;20.484;2023-09-08T07:13:40;7.03;;;3.03;;
82806;SDS011;72563;44.816;20.484;2023-09-08T07:16:05;6.68;;;2.90;;
82806;SDS011;72563;44.816;20.484;2023-09-08T07:18:31;7.80;;;3.63;;
82806;SDS011;72563;44.816;20.484;2023-09-08T07:21:00;8.57;;;3.38;;
82806;SDS011;72563;44.816;20.484;2023-09-08T07:23:26;8.75;;;3.75;;
82806;SDS011;72563;44.816;20.484;2023-09-08T07:25:52;8.43;;;3.83;;
82806;SDS011;72563;44.816;20.484;2023-09-08T07:28:17;7.18;;;3.60;;
82806;SDS011;72563;44.816;20.484;2023-09-08T07:30:42;7.45;;;3.28;;
82806;SDS011;72563;44.816;20.484;2023-09-08T07:33:08;8.77;;;3.63;;
82806;SDS011;72563;44.816;20.484;2023-09-08T07:35:37;8.80;;;3.50;;
82806;SDS011;72563;44.816;20.484;2023-09-08T07:38:04;8.90;;;3.80;;
82806;SDS011;72563;44.816;20.484;2023-09-08T07:40:31;8.85;;;3.22;;
82806;SDS011;72563;44.816;20.484;2023-09-08T07:42:57;7.60;;;3.50;;
82806;SDS011;72563;44.816;20.484;2023-09-08T07:45:23;8.50;;;3.63;;
82806;SDS011;72563;44.816;20.484;2023-09-08T07:47:48;7.55;;;3.53;;
82806;SDS011;72563;44.816;20.484;2023-09-08T07:52:47;7.47;;;3.63;;
82806;SDS011;72563;44.816;20.484;2023-09-08T07:55:14;8.10;;;3.28;;
82806;SDS011;72563;44.816;20.484;2023-09-08T07:57:41;7.20;;;3.70;;
82806;SDS011;72563;44.816;20.484;2023-09-08T08:00:08;9.52;;;4.03;;
82806;SDS011;72563;44.816;20.484;2023-09-08T08:02:36;7.45;;;3.80;;
82806;SDS011;72563;44.816;20.484;2023-09-08T08:05:03;8.07;;;3.40;;
82806;SDS011;72563;44.816;20.484;2023-09-08T08:07:29;11.27;;;3.80;;
82806;SDS011;72563;44.816;20.484;2023-09-08T08:09:55;9.55;;;4.22;;
82806;SDS011;72563;44.816;20.484;2023-09-08T08:12:20;8.68;;;4.25;;
82806;SDS011;72563;44.816;20.484;2023-09-08T08:14:46;9.18;;;3.92;;
82806;SDS011;72563;44.816;20.484;2023-09-08T08:17:11;8.25;;;3.83;;
82806;SDS011;72563;44.816;20.484;2023-09-08T08:19:37;9.13;;;3.80;;
82806;SDS011;72563;44.816;20.484;2023-09-08T08:22:03;8.52;;;3.88;;
82806;SDS011;72563;44.816;20.484;2023-09-08T08:24:28;7.70;;;4.25;;
82806;SDS011;72563;44.816;20.484;2023-09-08T08:26:54;8.35;;;4.00;;
82806;SDS011;72563;44.816;20.484;2023-09-08T08:29:19;8.52;;;4.10;;
82806;SDS011;72563;44.816;20.484;2023-09-08T08:31:45;8.30;;;4.13;;
82806;SDS011;72563;44.816;20.484;2023-09-08T08:34:10;8.95;;;4.80;;
82806;SDS011;72563;44.816;20.484;2023-09-08T08:36:35;8.55;;;3.78;;
82806;SDS011;72563;44.816;20.484;2023-09-08T08:39:01;8.95;;;4.07;;
82806;SDS011;72563;44.816;20.484;2023-09-08T08:41:28;8.02;;;4.20;;
82806;SDS011;72563;44.816;20.484;2023-09-08T08:43:54;8.80;;;4.25;;
82806;SDS011;72563;44.816;20.484;2023-09-08T08:46:21;10.25;;;4.35;;
82806;SDS011;72563;44.816;20.484;2023-09-08T08:48:48;8.05;;;4.20;;
82806;SDS011;72563;44.816;20.484;2023-09-08T08:51:15;8.13;;;4.38;;
82806;SDS011;72563;44.816;20.484;2023-09-08T08:53:43;9.90;;;4.38;;
82806;SDS011;72563;44.816;20.484;2023-09-08T08:56:09;7.97;;;3.83;;
82806;SDS011;72563;44.816;20.484;2023-09-08T08:58:39;8.20;;;3.88;;
82806;SDS011;72563;44.816;20.484;2023-09-08T09:01:04;7.90;;;4.45;;
82806;SDS011;72563;44.816;20.484;2023-09-08T09:03:32;7.32;;;4.13;;
82806;SDS011;72563;44.816;20.484;2023-09-08T09:06:02;8.50;;;3.90;;
82806;SDS011;72563;44.816;20.484;2023-09-08T09:08:29;7.03;;;4.07;;
82806;SDS011;72563;44.816;20.484;2023-09-08T09:10:54;8.95;;;3.70;;
82806;SDS011;72563;44.816;20.484;2023-09-08T09:13:20;10.95;;;4.10;;
82806;SDS011;72563;44.816;20.484;2023-09-08T09:15:46;8.20;;;4.22;;
82806;SDS011;72563;44.816;20.484;2023-09-08T09:18:14;8.18;;;3.70;;
82806;SDS011;72563;44.816;20.484;2023-09-08T09:20:40;7.63;;;4.22;;
82806;SDS011;72563;44.816;20.484;2023-09-08T09:23:06;8.32;;;4.10;;
82806;SDS011;72563;44.816;20.484;2023-09-08T09:25:32;8.27;;;4.15;;
82806;SDS011;72563;44.816;20.484;2023-09-08T09:27:58;7.72;;;3.97;;
82806;SDS011;72563;44.816;20.484;2023-09-08T09:30:25;8.40;;;3.72;;
82806;SDS011;72563;44.816;20.484;2023-09-08T09:32:59;8.77;;;3.58;;
82806;SDS011;72563;44.816;20.484;2023-09-08T09:35:46;8.90;;;4.32;;
82806;SDS011;72563;44.816;20.484;2023-09-08T09:38:11;9.00;;;3.63;;
82806;SDS011;72563;44.816;20.484;2023-09-08T09:40:38;8.35;;;4.03;;
82806;SDS011;72563;44.816;20.484;2023-09-08T09:43:04;7.55;;;3.92;;
82806;SDS011;72563;44.816;20.484;2023-09-08T09:45:31;9.32;;;4.13;;
82806;SDS011;72563;44.816;20.484;2023-09-08T09:47:59;7.00;;;3.58;;
82806;SDS011;72563;44.816;20.484;2023-09-08T09:50:33;8.02;;;3.40;;
82806;SDS011;72563;44.816;20.484;2023-09-08T09:52:59;7.93;;;3.72;;
82806;SDS011;72563;44.816;20.484;2023-09-08T09:55:27;11.25;;;3.50;;
82806;SDS011;72563;44.816;20.484;2023-09-08T09:57:56;7.13;;;3.33;;
82806;SDS011;72563;44.816;20.484;2023-09-08T10:00:25;8.35;;;3.83;;
82806;SDS011;72563;44.816;20.484;2023-09-08T10:02:53;8.23;;;3.33;;
82806;SDS011;72563;44.816;20.484;2023-09-08T10:05:19;7.82;;;3.53;;
82806;SDS011;72563;44.816;20.484;2023-09-08T10:07:46;7.78;;;3.15;;
82806;SDS011;72563;44.816;20.484;2023-09-08T10:10:12;7.82;;;3.67;;
82806;SDS011;72563;44.816;20.484;2023-09-08T10:12:38;8.07;;;3.42;;
82806;SDS011;72563;44.816;20.484;2023-09-08T10:17:31;6.65;;;3.10;;
82806;SDS011;72563;44.816;20.484;2023-09-08T10:20:00;6.70;;;3.53;;
82806;SDS011;72563;44.816;20.484;2023-09-08T10:22:29;6.82;;;3.45;;
82806;SDS011;72563;44.816;20.484;2023-09-08T10:24:57;6.57;;;3.42;;
82806;SDS011;72563;44.816;20.484;2023-09-08T10:27:30;7.72;;;3.70;;
82806;SDS011;72563;44.816;20.484;2023-09-08T10:29:57;7.00;;;3.50;;
82806;SDS011;72563;44.816;20.484;2023-09-08T10:32:26;8.00;;;3.60;;
82806;SDS011;72563;44.816;20.484;2023-09-08T10:34:53;9.60;;;3.85;;
82806;SDS011;72563;44.816;20.484;2023-09-08T10:37:23;8.77;;;3.80;;
82806;SDS011;72563;44.816;20.484;2023-09-08T10:39:50;7.70;;;3.50;;
82806;SDS011;72563;44.816;20.484;2023-09-08T10:47:19;7.70;;;3.40;;
82806;SDS011;72563;44.816;20.484;2023-09-08T10:49:47;6.82;;;3.25;;
82806;SDS011;72563;44.816;20.484;2023-09-08T10:52:13;6.57;;;3.50;;
82806;SDS011;72563;44.816;20.484;2023-09-08T10:57:12;7.47;;;3.70;;
82806;SDS011;72563;44.816;20.484;2023-09-08T10:59:39;8.40;;;3.72;;
82806;SDS011;72563;44.816;20.484;2023-09-08T11:02:13;7.50;;;3.53;;
82806;SDS011;72563;44.816;20.484;2023-09-08T11:05:06;8.30;;;4.00;;
82806;SDS011;72563;44.816;20.484;2023-09-08T11:07:36;8.30;;;3.10;;
82806;SDS011;72563;44.816;20.484;2023-09-08T11:10:04;7.30;;;3.92;;
82806;SDS011;72563;44.816;20.484;2023-09-08T11:12:31;10.88;;;3.42;;
82806;SDS011;72563;44.816;20.484;2023-09-08T11:14:57;7.50;;;3.42;;
82806;SDS011;72563;44.816;20.484;2023-09-08T11:17:28;8.50;;;3.40;;
82806;SDS011;72563;44.816;20.484;2023-09-08T11:19:54;7.25;;;3.42;;
82806;SDS011;72563;44.816;20.484;2023-09-08T11:22:21;6.90;;;3.67;;
82806;SDS011;72563;44.816;20.484;2023-09-08T11:24:49;7.07;;;3.75;;
82806;SDS011;72563;44.816;20.484;2023-09-08T11:27:15;6.70;;;3.60;;
82806;SDS011;72563;44.816;20.484;2023-09-08T11:29:40;7.57;;;3.97;;
82806;SDS011;72563;44.816;20.484;2023-09-08T11:32:06;7.28;;;4.03;;
82806;SDS011;72563;44.816;20.484;2023-09-08T11:34:34;7.43;;;3.28;;
82806;SDS011;72563;44.816;20.484;2023-09-08T11:37:00;7.60;;;3.70;;
82806;SDS011;72563;44.816;20.484;2023-09-08T11:39:30;6.57;;;3.28;;
82806;SDS011;72563;44.816;20.484;2023-09-08T11:41:56;7.18;;;3.72;;
82806;SDS011;72563;44.816;20.484;2023-09-08T11:44:25;6.32;;;3.38;;
82806;SDS011;72563;44.816;20.484;2023-09-08T11:46:51;7.00;;;3.60;;
82806;SDS011;72563;44.816;20.484;2023-09-08T11:49:20;7.18;;;3.53;;
82806;SDS011;72563;44.816;20.484;2023-09-08T11:51:47;7.07;;;3.67;;
82806;SDS011;72563;44.816;20.484;2023-09-08T11:54:14;7.68;;;3.92;;
82806;SDS011;72563;44.816;20.484;2023-09-08T11:56:39;6.95;;;3.88;;
82806;SDS011;72563;44.816;20.484;2023-09-08T11:59:05;7.68;;;3.72;;
82806;SDS011;72563;44.816;20.484;2023-09-08T12:01:32;8.13;;;2.95;;
82806;SDS011;72563;44.816;20.484;2023-09-08T12:03:59;6.90;;;3.42;;
82806;SDS011;72563;44.816;20.484;2023-09-08T12:06:27;6.38;;;3.47;;
82806;SDS011;72563;44.816;20.484;2023-09-08T12:08:54;7.28;;;3.22;;
82806;SDS011;72563;44.816;20.484;2023-09-08T12:11:21;6.80;;;3.60;;
82806;SDS011;72563;44.816;20.484;2023-09-08T12:13:47;7.88;;;3.45;;
82806;SDS011;72563;44.816;20.484;2023-09-08T12:16:18;6.60;;;3.60;;
82806;SDS011;72563;44.816;20.484;2023-09-08T12:18:44;7.53;;;3.67;;
82806;SDS011;72563;44.816;20.484;2023-09-08T12:21:10;9.10;;;3.15;;
82806;SDS011;72563;44.816;20.484;2023-09-08T12:23:46;8.63;;;3.38;;
82806;SDS011;72563;44.816;20.484;2023-09-08T12:26:14;6.28;;;3.15;;
82806;SDS011;72563;44.816;20.484;2023-09-08T12:28:41;6.60;;;3.13;;
82806;SDS011;72563;44.816;20.484;2023-09-08T12:31:07;7.25;;;3.05;;
82806;SDS011;72563;44.816;20.484;2023-09-08T12:33:34;7.90;;;3.28;;
82806;SDS011;72563;44.816;20.484;2023-09-08T12:36:09;6.90;;;3.40;;
82806;SDS011;72563;44.816;20.484;2023-09-08T12:38:49;8.20;;;3.15;;
82806;SDS011;72563;44.816;20.484;2023-09-08T12:41:16;7.32;;;3.55;;
82806;SDS011;72563;44.816;20.484;2023-09-08T12:43:41;8.30;;;3.55;;
82806;SDS011;72563;44.816;20.484;2023-09-08T12:46:07;7.32;;;3.55;;
82806;SDS011;72563;44.816;20.484;2023-09-08T12:48:33;6.15;;;3.13;;
82806;SDS011;72563;44.816;20.484;2023-09-08T12:50:59;6.10;;;2.85;;
82806;SDS011;72563;44.816;20.484;2023-09-08T12:53:25;6.20;;;3.50;;
82806;SDS011;72563;44.816;20.484;2023-09-08T12:55:50;6.90;;;3.58;;
82806;SDS011;72563;44.816;20.484;2023-09-08T12:58:16;7.40;;;3.45;;
82806;SDS011;72563;44.816;20.484;2023-09-08T13:00:44;8.13;;;3.22;;
82806;SDS011;72563;44.816;20.484;2023-09-08T13:03:10;9.52;;;3.20;;
82806;SDS011;72563;44.816;20.484;2023-09-08T13:05:35;8.93;;;4.00;;
82806;SDS011;72563;44.816;20.484;2023-09-08T13:08:03;7.38;;;3.35;;
82806;SDS011;72563;44.816;20.484;2023-09-08T13:10:29;6.40;;;3.38;;
82806;SDS011;72563;44.816;20.484;2023-09-08T13:12:54;7.28;;;3.63;;
82806;SDS011;72563;44.816;20.484;2023-09-08T13:15:20;8.93;;;3.90;;
82806;SDS011;72563;44.816;20.484;2023-09-08T13:17:46;5.90;;;3.13;;
82806;SDS011;72563;44.816;20.484;2023-09-08T13:20:11;8.68;;;3.70;;
82806;SDS011;72563;44.816;20.484;2023-09-08T13:22:37;8.45;;;3.63;;
82806;SDS011;72563;44.816;20.484;2023-09-08T13:25:03;7.60;;;3.40;;
82806;SDS011;72563;44.816;20.484;2023-09-08T13:27:29;6.93;;;3.28;;
82806;SDS011;72563;44.816;20.484;2023-09-08T13:29:54;7.63;;;3.35;;
82806;SDS011;72563;44.816;20.484;2023-09-08T13:32:20;7.70;;;3.42;;
82806;SDS011;72563;44.816;20.484;2023-09-08T13:34:45;8.52;;;3.60;;
82806;SDS011;72563;44.816;20.484;2023-09-08T13:37:13;6.38;;;3.25;;
82806;SDS011;72563;44.816;20.484;2023-09-08T13:39:40;6.82;;;3.28;;
82806;SDS011;72563;44.816;20.484;2023-09-08T13:42:05;8.43;;;3.92;;
82806;SDS011;72563;44.816;20.484;2023-09-08T13:44:31;6.45;;;3.50;;
82806;SDS011;72563;44.816;20.484;2023-09-08T13:46:56;6.57;;;3.72;;
82806;SDS011;72563;44.816;20.484;2023-09-08T13:49:22;9.52;;;4.20;;
82806;SDS011;72563;44.816;20.484;2023-09-08T13:51:51;9.05;;;4.40;;
82806;SDS011;72563;44.816;20.484;2023-09-08T13:54:34;6.43;;;3.78;;
82806;SDS011;72563;44.816;20.484;2023-09-08T13:57:01;7.28;;;3.85;;
82806;SDS011;72563;44.816;20.484;2023-09-08T13:59:28;6.47;;;3.13;;
82806;SDS011;72563;44.816;20.484;2023-09-08T14:04:20;6.78;;;3.30;;
82806;SDS011;72563;44.816;20.484;2023-09-08T14:06:46;8.15;;;3.53;;
82806;SDS011;72563;44.816;20.484;2023-09-08T14:09:12;6.85;;;3.30;;
82806;SDS011;72563;44.816;20.484;2023-09-08T14:11:37;8.30;;;3.30;;
82806;SDS011;72563;44.816;20.484;2023-09-08T14:14:03;8.63;;;3.58;;
82806;SDS011;72563;44.816;20.484;2023-09-08T14:16:29;7.53;;;3.35;;
82806;SDS011;72563;44.816;20.484;2023-09-08T14:18:54;6.97;;;3.42;;
82806;SDS011;72563;44.816;20.484;2023-09-08T14:21:20;6.50;;;3.00;;
82806;SDS011;72563;44.816;20.484;2023-09-08T14:23:46;9.50;;;3.75;;
82806;SDS011;72563;44.816;20.484;2023-09-08T14:26:11;7.50;;;3.72;;
82806;SDS011;72563;44.816;20.484;2023-09-08T14:28:37;6.68;;;3.45;;
82806;SDS011;72563;44.816;20.484;2023-09-08T14:31:03;6.32;;;3.40;;
82806;SDS011;72563;44.816;20.484;2023-09-08T14:33:29;7.18;;;4.28;;
82806;SDS011;72563;44.816;20.484;2023-09-08T14:35:55;6.50;;;3.13;;
82806;SDS011;72563;44.816;20.484;2023-09-08T14:38:21;6.55;;;3.45;;
82806;SDS011;72563;44.816;20.484;2023-09-08T14:40:57;7.05;;;3.90;;
82806;SDS011;72563;44.816;20.484;2023-09-08T14:45:52;6.05;;;3.15;;
82806;SDS011;72563;44.816;20.484;2023-09-08T14:48:19;7.15;;;3.58;;
82806;SDS011;72563;44.816;20.484;2023-09-08T14:50:44;10.15;;;3.05;;